TimeCST,TemperatureF,Dew PointF,Humidity,Sea Level PressureIn,VisibilityMPH,Wind Direction,Wind SpeedMPH,Gust SpeedMPH,PrecipitationIn,Events,Conditions,WindDirDegrees,DateUTC
12:15 AM,14.0,5.0,67,30.16,10.0,WNW,8.1,-,N/A,,Clear,300,2013-02-16 06:15:00
12:35 AM,14.0,5.0,67,30.16,10.0,WNW,10.4,-,N/A,,Clear,300,2013-02-16 06:35:00
12:55 AM,12.2,5.0,73,30.15,10.0,WNW,9.2,-,N/A,,Clear,300,2013-02-16 06:55:00
1:15 AM,12.2,5.0,73,30.15,10.0,WNW,9.2,-,N/A,,Clear,300,2013-02-16 07:15:00
1:35 AM,12.2,3.2,67,30.15,10.0,WNW,6.9,-,N/A,,Scattered Clouds,300,2013-02-16 07:35:00
1:55 AM,12.2,3.2,67,30.15,10.0,NW,8.1,-,N/A,,Mostly Cloudy,310,2013-02-16 07:55:00
2:15 AM,12.2,3.2,67,30.14,10.0,NW,9.2,-,N/A,,Mostly Cloudy,320,2013-02-16 08:15:00
2:35 AM,14.0,5.0,67,30.14,10.0,NW,9.2,-,N/A,,Overcast,320,2013-02-16 08:35:00
2:55 AM,12.2,5.0,73,30.14,10.0,WNW,6.9,-,N/A,,Overcast,300,2013-02-16 08:55:00
3:15 AM,12.2,5.0,73,30.13,10.0,WNW,9.2,-,N/A,,Overcast,300,2013-02-16 09:15:00
3:35 AM,12.2,3.2,67,30.13,10.0,WNW,8.1,-,N/A,,Overcast,300,2013-02-16 09:35:00
3:55 AM,12.2,3.2,67,30.13,10.0,WNW,8.1,-,N/A,,Overcast,290,2013-02-16 09:55:00
4:15 AM,10.4,3.2,73,30.13,10.0,WNW,8.1,-,N/A,,Scattered Clouds,290,2013-02-16 10:15:00
4:35 AM,10.4,3.2,73,30.14,10.0,WNW,6.9,-,N/A,,Clear,290,2013-02-16 10:35:00
4:55 AM,10.4,3.2,73,30.14,10.0,WNW,5.8,-,N/A,,Clear,290,2013-02-16 10:55:00
5:15 AM,10.4,3.2,73,30.13,10.0,WNW,4.6,-,N/A,,Clear,290,2013-02-16 11:15:00
5:35 AM,8.6,3.2,79,30.13,10.0,West,6.9,-,N/A,,Clear,280,2013-02-16 11:35:00
5:55 AM,8.6,3.2,79,30.14,10.0,NW,4.6,-,N/A,,Clear,320,2013-02-16 11:55:00
6:45 AM,6.8,1.4,79,30.14,10.0,WNW,4.6,-,N/A,,Mostly Cloudy,300,2013-02-16 12:45:00
7:45 AM,8.6,1.4,73,30.14,10.0,NW,8.1,-,N/A,,Mostly Cloudy,310,2013-02-16 13:45:00
8:45 AM,10.4,1.4,67,30.14,10.0,NNW,10.4,-,N/A,,Mostly Cloudy,340,2013-02-16 14:45:00
9:45 AM,14.0,1.4,57,30.14,10.0,NNW,9.2,-,N/A,,Mostly Cloudy,330,2013-02-16 15:45:00
10:45 AM,15.8,-0.4,49,30.14,10.0,WNW,13.8,23.0,N/A,,Clear,300,2013-02-16 16:45:00
11:45 AM,15.8,-2.2,45,30.13,10.0,WNW,13.8,-,N/A,,Clear,300,2013-02-16 17:45:00
12:45 PM,15.8,-0.4,49,30.12,10.0,NW,12.7,18.4,N/A,,Clear,310,2013-02-16 18:45:00
1:45 PM,17.6,1.4,49,30.11,10.0,NW,10.4,18.4,N/A,,Scattered Clouds,320,2013-02-16 19:45:00
2:45 PM,17.6,1.4,49,30.11,10.0,NNW,12.7,-,N/A,,Scattered Clouds,330,2013-02-16 20:45:00
3:45 PM,17.6,1.4,49,30.12,10.0,NW,9.2,-,N/A,,Clear,320,2013-02-16 21:45:00
4:45 PM,15.8,-0.4,49,30.13,10.0,NNW,11.5,17.3,N/A,,Clear,330,2013-02-16 22:45:00
5:45 PM,14.0,-0.4,53,30.15,10.0,NW,9.2,-,N/A,,Clear,320,2013-02-16 23:45:00
6:45 PM,12.2,-0.4,57,30.17,10.0,WNW,5.8,-,N/A,,Clear,290,2013-02-17 00:45:00
7:45 PM,10.4,-0.4,62,30.17,10.0,WNW,9.2,-,N/A,,Clear,290,2013-02-17 01:45:00
8:15 PM,12.2,1.4,62,30.16,10.0,Calm,Calm,-,N/A,,Clear,0,2013-02-17 02:15:00
8:35 PM,12.2,1.4,62,30.17,10.0,West,3.5,-,N/A,,Clear,270,2013-02-17 02:35:00
8:45 PM,10.4,-0.4,62,30.17,10.0,West,4.6,-,N/A,,Clear,280,2013-02-17 02:45:00
8:55 PM,10.4,1.4,67,30.17,10.0,West,4.6,-,N/A,,Clear,270,2013-02-17 02:55:00
9:15 PM,10.4,1.4,67,30.18,10.0,West,4.6,-,N/A,,Clear,280,2013-02-17 03:15:00
9:35 PM,10.4,-0.4,62,30.17,10.0,WNW,3.5,-,N/A,,Clear,290,2013-02-17 03:35:00
9:55 PM,10.4,-0.4,62,30.18,10.0,West,4.6,-,N/A,,Clear,280,2013-02-17 03:55:00
10:15 PM,10.4,-0.4,62,30.18,10.0,WNW,5.8,-,N/A,,Clear,290,2013-02-17 04:15:00
10:35 PM,10.4,-0.4,62,30.17,10.0,NW,4.6,-,N/A,,Clear,310,2013-02-17 04:35:00
10:55 PM,10.4,-0.4,62,30.17,10.0,WNW,4.6,-,N/A,,Clear,300,2013-02-17 04:55:00
11:15 PM,10.4,-0.4,62,30.17,10.0,West,3.5,-,N/A,,Clear,260,2013-02-17 05:15:00
11:35 PM,10.4,-2.2,57,30.17,10.0,West,3.5,-,N/A,,Clear,280,2013-02-17 05:35:00
11:55 PM,10.4,-2.2,57,30.17,10.0,Calm,Calm,-,N/A,,Clear,0,2013-02-17 05:55:00